createdAt,value
2019-03-10T00:00:19.524Z,5.40
2019-03-10T00:02:47.791Z,5.50
2019-03-10T00:05:16.047Z,5.60
2019-03-10T00:07:44.313Z,5.60
2019-03-10T00:10:12.732Z,5.70
2019-03-10T00:12:41.032Z,5.70
2019-03-10T00:15:11.737Z,5.70
2019-03-10T00:17:40.078Z,5.90
2019-03-10T00:20:09.924Z,5.90
2019-03-10T00:22:38.262Z,5.90
2019-03-10T00:25:07.974Z,5.90
2019-03-10T00:27:36.253Z,5.90
2019-03-10T00:30:10.789Z,6.00
2019-03-10T00:32:39.130Z,5.90
2019-03-10T00:35:07.426Z,5.90
2019-03-10T00:37:35.813Z,5.90
2019-03-10T00:40:13.208Z,5.80
2019-03-10T00:43:05.078Z,5.80
2019-03-10T00:46:05.466Z,5.90
2019-03-10T00:48:59.837Z,5.70
2019-03-10T00:51:34.425Z,5.70
2019-03-10T00:54:02.921Z,5.70
2019-03-10T00:56:31.272Z,5.60
2019-03-10T00:58:59.565Z,5.70
2019-03-10T01:01:27.942Z,5.60
2019-03-10T01:03:56.267Z,5.60
2019-03-10T01:06:24.525Z,5.60
2019-03-10T01:08:52.784Z,5.60
2019-03-10T01:11:21.071Z,5.60
2019-03-10T01:13:49.342Z,5.60
2019-03-10T01:16:17.638Z,5.60
2019-03-10T01:18:45.898Z,5.60
2019-03-10T01:21:14.173Z,5.60
2019-03-10T01:23:42.957Z,5.60
2019-03-10T01:26:11.281Z,5.70
2019-03-10T01:28:39.553Z,5.60
2019-03-10T01:31:13.882Z,5.60
2019-03-10T01:34:07.749Z,5.60
2019-03-10T01:36:36.213Z,5.70
2019-03-10T01:39:06.435Z,5.70
2019-03-10T01:41:34.701Z,5.70
2019-03-10T01:44:02.993Z,5.60
2019-03-10T01:46:31.284Z,5.60
2019-03-10T01:48:59.553Z,5.60
2019-03-10T01:51:27.913Z,5.70
2019-03-10T01:53:56.186Z,5.70
2019-03-10T01:56:24.473Z,5.60
2019-03-10T01:58:52.802Z,5.60
2019-03-10T02:01:21.062Z,5.50
2019-03-10T02:03:49.397Z,5.50
2019-03-10T02:06:17.677Z,5.50
2019-03-10T02:08:46.027Z,5.60
2019-03-10T02:11:14.337Z,5.50
2019-03-10T02:13:42.705Z,5.50
2019-03-10T02:16:10.966Z,5.60
2019-03-10T02:18:39.261Z,5.70
2019-03-10T02:21:07.517Z,5.70
2019-03-10T02:23:35.774Z,5.70
2019-03-10T02:26:05.189Z,5.80
2019-03-10T02:28:33.521Z,5.80
2019-03-10T02:31:01.779Z,5.80
2019-03-10T02:33:30.105Z,5.70
2019-03-10T02:35:58.425Z,5.80
2019-03-10T02:38:26.702Z,5.70
2019-03-10T02:40:54.954Z,5.60
2019-03-10T02:43:23.227Z,5.60
2019-03-10T02:45:51.565Z,5.50
2019-03-10T02:48:19.896Z,5.50
2019-03-10T02:50:48.161Z,5.50
2019-03-10T02:53:16.453Z,5.40
2019-03-10T02:55:44.723Z,5.40
2019-03-10T02:58:13.061Z,5.30
2019-03-10T03:00:41.363Z,5.20
2019-03-10T03:03:09.651Z,5.20
2019-03-10T03:05:38.019Z,5.10
2019-03-10T03:08:06.324Z,5.10
2019-03-10T03:10:34.587Z,5.00
2019-03-10T03:13:02.858Z,5.00
2019-03-10T03:15:31.146Z,5.00
2019-03-10T03:17:59.418Z,5.00
2019-03-10T03:20:27.743Z,5.00
2019-03-10T03:22:56.022Z,5.00
2019-03-10T03:25:24.295Z,4.90
2019-03-10T03:27:52.887Z,4.90
2019-03-10T03:30:21.181Z,4.80
2019-03-10T03:32:49.494Z,4.80
2019-03-10T03:35:37.521Z,4.80
2019-03-10T03:38:05.813Z,4.70
2019-03-10T03:40:34.062Z,4.70
2019-03-10T03:43:02.324Z,4.70
2019-03-10T03:45:30.590Z,4.70
2019-03-10T03:47:58.852Z,4.60
2019-03-10T03:50:27.203Z,4.60
2019-03-10T03:52:55.462Z,4.60
2019-03-10T03:55:23.745Z,4.60
2019-03-10T03:57:52.070Z,4.60
2019-03-10T04:00:20.327Z,4.50
2019-03-10T04:02:48.585Z,4.40
2019-03-10T04:05:16.903Z,4.40
2019-03-10T04:07:45.150Z,4.40
2019-03-10T04:10:13.465Z,4.30
2019-03-10T04:12:41.806Z,4.30
2019-03-10T04:15:10.080Z,4.30
2019-03-10T04:17:38.337Z,4.20
2019-03-10T04:20:08.761Z,4.30
2019-03-10T04:22:37.021Z,4.30
2019-03-10T04:25:06.837Z,4.30
2019-03-10T04:27:35.112Z,4.30
2019-03-10T04:30:03.809Z,4.40
2019-03-10T04:32:32.093Z,4.30
2019-03-10T04:35:00.426Z,4.20
2019-03-10T04:37:28.768Z,4.20
2019-03-10T04:39:57.045Z,4.20
2019-03-10T04:42:25.332Z,4.30
2019-03-10T04:44:53.621Z,4.20
2019-03-10T04:47:21.871Z,4.20
2019-03-10T04:49:50.140Z,4.10
2019-03-10T04:52:18.409Z,4.00
2019-03-10T04:54:54.352Z,4.00
2019-03-10T04:57:23.484Z,4.00
2019-03-10T04:59:51.862Z,4.00
2019-03-10T05:02:20.169Z,4.00
2019-03-10T05:04:48.445Z,3.90
2019-03-10T05:07:16.720Z,3.90
2019-03-10T05:09:45.099Z,3.80
2019-03-10T05:12:13.417Z,3.70
2019-03-10T05:14:41.739Z,3.70
2019-03-10T05:17:10.081Z,3.70
2019-03-10T05:19:38.358Z,3.70
2019-03-10T05:22:06.619Z,3.70
2019-03-10T05:24:34.957Z,3.60
2019-03-10T05:27:03.195Z,3.60
2019-03-10T05:29:31.469Z,3.60
2019-03-10T05:31:59.747Z,3.60
2019-03-10T05:34:28.011Z,3.60
2019-03-10T05:36:56.339Z,3.60
2019-03-10T05:39:24.585Z,3.50
2019-03-10T05:41:52.861Z,3.50
2019-03-10T05:44:21.124Z,3.50
2019-03-10T05:46:49.397Z,3.50
2019-03-10T05:49:17.673Z,3.60
2019-03-10T05:51:45.949Z,3.60
2019-03-10T05:54:14.220Z,3.50
2019-03-10T05:56:42.538Z,3.50
2019-03-10T05:59:10.803Z,3.50
2019-03-10T06:01:39.084Z,3.60
2019-03-10T06:04:07.338Z,3.60
2019-03-10T06:06:35.677Z,3.70
2019-03-10T06:09:05.372Z,3.80
2019-03-10T06:11:33.634Z,3.90
2019-03-10T06:14:01.896Z,4.00
2019-03-10T06:16:30.174Z,4.00
2019-03-10T06:18:58.433Z,4.10
2019-03-10T06:21:26.729Z,4.20
2019-03-10T06:23:55.157Z,4.30
2019-03-10T06:26:23.463Z,4.50
2019-03-10T06:28:51.836Z,4.70
2019-03-10T06:31:21.180Z,5.10
2019-03-10T06:33:49.439Z,5.90
2019-03-10T06:36:17.700Z,7.00
2019-03-10T06:38:46.013Z,7.70
2019-03-10T06:41:14.325Z,8.40
2019-03-10T06:43:42.667Z,9.60
2019-03-10T06:46:10.979Z,10.70
2019-03-10T06:48:39.377Z,11.20
2019-03-10T06:51:07.666Z,11.70
2019-03-10T06:53:35.951Z,12.40
2019-03-10T06:56:04.285Z,12.40
2019-03-10T06:58:32.550Z,12.10
2019-03-10T07:01:00.883Z,11.40
2019-03-10T07:03:29.174Z,10.60
2019-03-10T07:05:57.489Z,10.10
2019-03-10T07:08:25.809Z,9.80
2019-03-10T07:10:54.063Z,9.80
2019-03-10T07:13:22.382Z,9.60
2019-03-10T07:15:50.640Z,9.50
2019-03-10T07:18:18.985Z,9.40
2019-03-10T07:20:47.246Z,10.40
2019-03-10T07:23:16.909Z,12.20
2019-03-10T07:25:45.169Z,13.30
2019-03-10T07:28:17.873Z,14.20
2019-03-10T07:30:47.922Z,15.30
2019-03-10T07:33:29.923Z,15.50
2019-03-10T07:36:00.089Z,16.80
2019-03-10T07:38:38.999Z,16.80
2019-03-10T07:41:28.468Z,17.00
2019-03-10T07:44:02.711Z,17.30
2019-03-10T07:46:36.196Z,16.90
2019-03-10T07:49:08.819Z,17.20
2019-03-10T07:51:41.564Z,17.40
2019-03-10T07:54:14.422Z,17.30
2019-03-10T07:57:00.615Z,17.50
2019-03-10T07:59:47.352Z,17.50
2019-03-10T08:02:33.919Z,17.50
2019-03-10T08:05:19.246Z,16.90
2019-03-10T08:07:49.216Z,16.70
2019-03-10T08:10:31.431Z,17.10
2019-03-10T08:13:10.315Z,17.10
2019-03-10T08:15:40.214Z,18.80
2019-03-10T08:18:19.424Z,18.30
2019-03-10T08:21:05.334Z,17.60
2019-03-10T08:23:44.075Z,18.00
2019-03-10T08:26:19.696Z,18.20
2019-03-10T08:28:57.186Z,18.00
2019-03-10T08:31:32.805Z,16.60
2019-03-10T08:34:18.961Z,15.00
2019-03-10T08:36:55.023Z,13.60
2019-03-10T08:39:25.099Z,12.60
2019-03-10T08:41:56.647Z,11.80
2019-03-10T08:44:26.610Z,11.50
2019-03-10T08:47:04.016Z,11.30
2019-03-10T08:49:44.751Z,11.00
2019-03-10T08:52:08.401Z,10.70
2019-03-10T08:54:41.235Z,10.70
2019-03-10T08:57:11.138Z,10.90
2019-03-10T08:59:41.078Z,10.90
2019-03-10T09:02:19.947Z,11.00
2019-03-10T09:04:56.192Z,11.30
2019-03-10T09:07:26.246Z,11.40
2019-03-10T09:10:11.280Z,11.70
2019-03-10T09:12:50.906Z,12.00
2019-03-10T09:15:26.712Z,12.20
2019-03-10T09:18:13.174Z,12.00
2019-03-10T09:20:47.526Z,12.00
2019-03-10T09:23:20.190Z,12.20
2019-03-10T09:25:53.302Z,12.10
2019-03-10T09:28:39.673Z,12.10
2019-03-10T09:31:11.284Z,12.10
2019-03-10T09:33:41.321Z,12.40
2019-03-10T09:36:19.973Z,12.40
2019-03-10T09:39:15.674Z,12.60
2019-03-10T09:41:51.777Z,12.50
2019-03-10T09:44:37.843Z,12.60
2019-03-10T09:47:10.678Z,12.90
2019-03-10T09:49:46.577Z,12.80
2019-03-10T09:52:16.598Z,12.60
2019-03-10T09:55:00.963Z,12.30
2019-03-10T09:57:39.332Z,12.60
2019-03-10T10:00:17.619Z,12.90
2019-03-10T10:02:53.326Z,12.90
2019-03-10T10:05:29.637Z,12.90
2019-03-10T10:08:04.081Z,14.00
2019-03-10T10:10:34.747Z,13.80
2019-03-10T10:13:08.339Z,13.70
2019-03-10T10:15:44.607Z,14.10
2019-03-10T10:18:14.676Z,15.00
2019-03-10T10:20:47.270Z,15.60
2019-03-10T10:23:20.237Z,16.00
2019-03-10T10:25:50.238Z,15.60
2019-03-10T10:28:20.318Z,14.60
2019-03-10T10:30:59.483Z,14.10
2019-03-10T10:33:44.533Z,13.80
2019-03-10T10:36:32.131Z,13.30
2019-03-10T10:39:09.826Z,13.50
2019-03-10T10:41:51.887Z,13.70
2019-03-10T10:44:31.698Z,13.30
2019-03-10T10:47:01.655Z,12.70
2019-03-10T10:49:31.568Z,12.90
2019-03-10T10:52:16.491Z,13.40
2019-03-10T10:54:52.223Z,13.70
2019-03-10T10:57:41.557Z,14.00
2019-03-10T11:00:24.519Z,13.50
2019-03-10T11:02:54.625Z,13.10
2019-03-10T11:05:35.589Z,13.30
2019-03-10T11:08:11.626Z,13.70
2019-03-10T11:10:41.626Z,13.70
2019-03-10T11:13:21.109Z,14.10
2019-03-10T11:16:05.850Z,14.80
2019-03-10T11:18:38.458Z,15.20
2019-03-10T11:21:14.277Z,15.70
2019-03-10T11:23:44.334Z,15.80
2019-03-10T11:26:23.639Z,15.40
2019-03-10T11:29:05.422Z,15.50
2019-03-10T11:31:38.377Z,15.40
2019-03-10T11:34:20.586Z,15.30
2019-03-10T11:36:53.739Z,15.60
2019-03-10T11:42:37.801Z,16.40
2019-03-10T11:45:14.007Z,16.50
2019-03-10T11:47:53.070Z,15.80
2019-03-10T11:50:23.183Z,15.50
2019-03-10T11:53:06.552Z,14.80
2019-03-10T11:55:39.278Z,14.20
2019-03-10T11:58:11.728Z,13.60
2019-03-10T12:00:41.665Z,12.90
2019-03-10T12:03:27.767Z,12.40
2019-03-10T12:05:59.366Z,11.70
2019-03-10T12:08:32.161Z,11.30
2019-03-10T12:11:00.680Z,11.20
2019-03-10T12:13:29.023Z,11.10
2019-03-10T12:15:57.473Z,10.80
2019-03-10T12:18:25.772Z,10.90
2019-03-10T12:20:54.209Z,10.80
2019-03-10T12:23:22.508Z,11.00
2019-03-10T12:25:53.900Z,11.20
2019-03-10T12:28:23.895Z,11.70
2019-03-10T12:30:52.277Z,12.10
2019-03-10T12:33:22.487Z,12.40
2019-03-10T12:35:50.555Z,12.40
2019-03-10T12:38:18.854Z,12.50
2019-03-10T12:40:48.456Z,12.80
2019-03-10T12:43:19.494Z,13.00
2019-03-10T12:45:47.942Z,13.20
2019-03-10T12:48:16.333Z,13.50
2019-03-10T12:50:44.696Z,13.50
2019-03-10T12:53:12.953Z,13.50
2019-03-10T12:55:41.646Z,13.50
2019-03-10T12:58:10.004Z,13.70
2019-03-10T13:00:39.170Z,13.50
2019-03-10T13:03:07.506Z,13.20
2019-03-10T13:05:35.829Z,13.30
2019-03-10T13:08:04.167Z,13.30
2019-03-10T13:10:32.498Z,13.10
2019-03-10T13:13:00.868Z,12.90
2019-03-10T13:15:29.220Z,12.70
2019-03-10T13:17:57.519Z,12.80
2019-03-10T13:20:28.448Z,12.80
2019-03-10T13:22:55.840Z,12.70
2019-03-10T13:25:24.203Z,12.60
2019-03-10T13:27:52.549Z,12.40
2019-03-10T13:30:20.859Z,12.40
2019-03-10T13:32:49.380Z,12.50
2019-03-10T13:35:17.753Z,12.50
2019-03-10T13:37:49.002Z,12.50
2019-03-10T13:40:17.385Z,12.50
2019-03-10T13:42:47.294Z,12.30
2019-03-10T13:45:17.915Z,12.40
2019-03-10T13:47:46.347Z,12.20
2019-03-10T13:50:16.391Z,12.10
2019-03-10T13:52:44.863Z,12.00
2019-03-10T13:55:15.108Z,12.10
2019-03-10T13:57:54.809Z,12.00
2019-03-10T14:00:40.100Z,11.70
2019-03-10T14:03:01.793Z,11.50
2019-03-10T14:05:33.007Z,11.40
2019-03-10T14:08:01.426Z,11.20
2019-03-10T14:10:29.739Z,10.90
2019-03-10T14:12:59.757Z,10.70
2019-03-10T14:15:33.219Z,10.50
2019-03-10T14:18:01.588Z,10.50
2019-03-10T14:20:29.870Z,10.30
2019-03-10T14:22:58.166Z,10.40
2019-03-10T14:25:29.442Z,10.40
2019-03-10T14:28:00.258Z,10.40
2019-03-10T14:30:32.260Z,10.40
2019-03-10T14:33:00.305Z,10.30
2019-03-10T14:35:28.587Z,10.20
2019-03-10T14:37:57.043Z,10.10
2019-03-10T14:40:25.391Z,10.10
2019-03-10T14:42:54.310Z,10.00
2019-03-10T14:45:27.142Z,10.00
2019-03-10T14:47:55.818Z,10.00
2019-03-10T14:50:25.893Z,9.90
2019-03-10T14:52:54.301Z,9.80
2019-03-10T14:55:24.499Z,9.70
2019-03-10T14:57:52.783Z,9.70
2019-03-10T15:00:22.943Z,9.60
2019-03-10T15:02:53.229Z,9.60
2019-03-10T15:05:21.647Z,9.60
2019-03-10T15:07:51.812Z,9.10
2019-03-10T15:10:27.093Z,8.70
2019-03-10T15:12:55.417Z,8.10
2019-03-10T15:15:23.994Z,7.60
2019-03-10T15:17:52.450Z,7.30
2019-03-10T15:20:21.708Z,7.00
2019-03-10T15:22:50.396Z,6.80
2019-03-10T15:25:21.133Z,6.70
2019-03-10T15:27:49.605Z,6.60
2019-03-10T15:30:27.389Z,6.70
2019-03-10T15:32:55.855Z,6.80
2019-03-10T15:35:24.469Z,6.80
2019-03-10T15:37:53.037Z,6.90
2019-03-10T15:40:21.430Z,7.00
2019-03-10T15:42:52.931Z,7.10
2019-03-10T15:45:21.283Z,7.10
2019-03-10T15:47:49.592Z,7.20
2019-03-10T15:50:23.841Z,7.20
2019-03-10T15:52:52.151Z,7.10
2019-03-10T15:55:20.438Z,7.10
2019-03-10T15:57:50.440Z,7.10
2019-03-10T16:00:20.723Z,7.10
2019-03-10T16:02:49.145Z,7.10
2019-03-10T16:05:17.623Z,7.10
2019-03-10T16:07:45.932Z,7.10
2019-03-10T16:10:14.930Z,7.00
2019-03-10T16:12:43.265Z,6.90
2019-03-10T16:15:19.961Z,6.90
2019-03-10T16:17:48.571Z,6.80
2019-03-10T16:20:16.930Z,6.80
2019-03-10T16:22:45.398Z,6.70
2019-03-10T16:25:14.956Z,6.70
2019-03-10T16:27:43.319Z,6.70
2019-03-10T16:30:16.616Z,6.70
2019-03-10T16:32:45.028Z,6.70
2019-03-10T16:35:18.056Z,6.70
2019-03-10T16:37:46.509Z,6.70
2019-03-10T16:40:21.803Z,6.60
2019-03-10T16:42:50.177Z,6.60
2019-03-10T16:45:19.998Z,6.50
2019-03-10T16:47:48.278Z,6.50
2019-03-10T16:50:19.230Z,6.50
2019-03-10T16:52:49.762Z,6.50
2019-03-10T16:55:18.087Z,6.50
2019-03-10T16:57:46.395Z,6.50
2019-03-10T17:00:15.285Z,6.40
2019-03-10T17:02:43.747Z,6.40
2019-03-10T17:05:16.116Z,6.40
2019-03-10T17:07:44.617Z,6.30
2019-03-10T17:10:20.345Z,6.30
2019-03-10T17:12:48.871Z,6.30
2019-03-10T17:15:18.683Z,6.20
2019-03-10T17:17:47.052Z,6.20
2019-03-10T17:20:16.928Z,6.20
2019-03-10T17:22:45.450Z,6.20
2019-03-10T17:25:15.502Z,6.10
2019-03-10T17:27:45.549Z,6.10
2019-03-10T17:30:16.909Z,6.00
2019-03-10T17:32:45.403Z,6.00
2019-03-10T17:35:14.175Z,5.90
2019-03-10T17:37:42.523Z,5.80
2019-03-10T17:40:19.090Z,5.70
2019-03-10T17:42:55.071Z,5.70
2019-03-10T17:45:25.538Z,5.60
2019-03-10T17:47:54.189Z,5.60
2019-03-10T17:50:22.594Z,5.60
2019-03-10T17:52:51.464Z,5.60
2019-03-10T17:55:25.180Z,5.70
2019-03-10T17:57:53.462Z,5.60
2019-03-10T18:00:38.144Z,5.60
2019-03-10T18:03:06.471Z,5.60
2019-03-10T18:05:34.970Z,5.70
2019-03-10T18:08:03.468Z,5.70
2019-03-10T18:10:31.813Z,5.70
2019-03-10T18:13:00.187Z,5.70
2019-03-10T18:15:29.043Z,5.60
2019-03-10T18:18:01.956Z,5.50
2019-03-10T18:20:30.287Z,5.50
2019-03-10T18:23:00.303Z,5.50
2019-03-10T18:25:28.656Z,5.40
2019-03-10T18:27:56.925Z,5.40
2019-03-10T18:30:28.120Z,5.40
2019-03-10T18:32:56.431Z,5.40
2019-03-10T18:35:24.705Z,5.30
2019-03-10T18:37:53.002Z,5.30
2019-03-10T18:40:23.414Z,5.30
2019-03-10T18:42:51.897Z,5.30
2019-03-10T18:45:20.800Z,5.30
2019-03-10T18:47:49.235Z,5.30
2019-03-10T18:50:25.333Z,5.30
2019-03-10T18:52:53.667Z,5.30
2019-03-10T18:55:22.116Z,5.30
2019-03-10T18:57:50.912Z,5.20
2019-03-10T19:00:27.569Z,5.20
2019-03-10T19:02:58.515Z,5.10
2019-03-10T19:05:26.872Z,5.10
2019-03-10T19:07:55.211Z,5.10
2019-03-10T19:10:23.678Z,5.10
2019-03-10T19:12:52.168Z,5.10
2019-03-10T19:15:25.210Z,5.00
2019-03-10T19:17:53.558Z,5.00
2019-03-10T19:20:21.916Z,5.00
2019-03-10T19:22:50.460Z,4.90
2019-03-10T19:25:18.870Z,4.90
2019-03-10T19:27:47.157Z,4.90
2019-03-10T19:30:17.761Z,4.80
2019-03-10T19:32:46.022Z,4.80
2019-03-10T19:35:14.425Z,4.80
2019-03-10T19:37:42.783Z,4.80
2019-03-10T19:40:14.460Z,4.80
2019-03-10T19:42:42.717Z,4.80
2019-03-10T19:45:13.807Z,4.70
2019-03-10T19:47:42.144Z,4.60
2019-03-10T19:50:13.114Z,4.60
2019-03-10T19:52:41.366Z,4.60
2019-03-10T19:55:14.541Z,4.50
2019-03-10T19:57:42.851Z,4.50
2019-03-10T20:00:13.831Z,4.60
2019-03-10T20:02:42.107Z,4.60
2019-03-10T20:05:10.423Z,4.60
2019-03-10T20:07:38.714Z,4.50
2019-03-10T20:10:10.301Z,4.60
2019-03-10T20:12:38.627Z,4.60
2019-03-10T20:15:12.503Z,4.70
2019-03-10T20:17:40.762Z,4.60
2019-03-10T20:20:12.350Z,4.60
2019-03-10T20:22:40.674Z,4.60
2019-03-10T20:25:11.050Z,4.50
2019-03-10T20:27:39.313Z,4.50
2019-03-10T20:30:19.521Z,4.40
2019-03-10T20:32:47.800Z,4.40
2019-03-10T20:35:16.168Z,4.30
2019-03-10T20:37:44.460Z,4.30
2019-03-10T20:40:21.634Z,4.30
2019-03-10T20:42:50.259Z,4.30
2019-03-10T20:45:18.623Z,4.30
2019-03-10T20:47:46.884Z,4.20
2019-03-10T20:50:20.186Z,4.20
2019-03-10T20:52:48.469Z,4.20
2019-03-10T20:55:16.817Z,4.20
2019-03-10T20:57:45.143Z,4.10
2019-03-10T21:00:20.811Z,4.10
2019-03-10T21:02:49.105Z,4.20
2019-03-10T21:05:17.466Z,4.20
2019-03-10T21:07:45.799Z,4.20
2019-03-10T21:10:19.326Z,4.10
2019-03-10T21:12:47.655Z,4.10
2019-03-10T21:15:19.684Z,4.10
2019-03-10T21:17:47.999Z,4.10
2019-03-10T21:20:23.854Z,4.20
2019-03-10T21:22:52.181Z,4.10
2019-03-10T21:25:33.095Z,4.10
2019-03-10T21:28:01.534Z,4.10
2019-03-10T21:30:33.147Z,4.10
2019-03-10T21:33:01.527Z,4.00
2019-03-10T21:35:29.979Z,4.10
2019-03-10T21:37:58.379Z,4.10
2019-03-10T21:40:31.237Z,4.00
2019-03-10T21:42:59.687Z,4.00
2019-03-10T21:45:28.049Z,4.00
2019-03-10T21:47:56.432Z,4.00
2019-03-10T21:50:24.753Z,4.00
2019-03-10T21:52:53.044Z,4.00
2019-03-10T21:55:21.376Z,4.00
2019-03-10T21:57:49.653Z,4.00
2019-03-10T22:00:21.011Z,4.00
2019-03-10T22:02:49.285Z,4.00
2019-03-10T22:05:17.947Z,3.90
2019-03-10T22:07:46.298Z,3.90
2019-03-10T22:10:26.109Z,3.80
2019-03-10T22:12:46.075Z,3.80
2019-03-10T22:15:15.742Z,3.80
2019-03-10T22:17:44.017Z,3.80
2019-03-10T22:20:14.277Z,3.80
2019-03-10T22:22:48.288Z,3.80
2019-03-10T22:25:13.477Z,3.80
2019-03-10T22:27:41.876Z,3.80
2019-03-10T22:30:15.316Z,3.70
2019-03-10T22:32:43.597Z,3.70
2019-03-10T22:35:11.917Z,3.80
2019-03-10T22:37:40.180Z,3.80
2019-03-10T22:40:10.719Z,3.80
2019-03-10T22:42:39.000Z,3.80
2019-03-10T22:45:18.434Z,3.80
2019-03-10T22:47:46.679Z,3.80
2019-03-10T22:50:15.797Z,3.90
2019-03-10T22:52:44.118Z,3.90
2019-03-10T22:55:17.094Z,3.90
2019-03-10T22:57:45.408Z,3.90
2019-03-10T23:00:43.822Z,3.90
2019-03-10T23:03:12.143Z,4.00
2019-03-10T23:05:41.545Z,4.10
2019-03-10T23:08:10.223Z,4.10
2019-03-10T23:10:38.566Z,4.20
2019-03-10T23:13:06.834Z,4.20
2019-03-10T23:15:35.114Z,4.20
2019-03-10T23:18:03.390Z,4.30
2019-03-10T23:20:31.664Z,4.30
2019-03-10T23:23:00.036Z,4.40
2019-03-10T23:25:28.362Z,4.30
2019-03-10T23:27:56.608Z,4.40
2019-03-10T23:30:24.878Z,4.30
2019-03-10T23:32:53.254Z,4.20
2019-03-10T23:35:21.561Z,4.30
2019-03-10T23:37:49.819Z,4.30
2019-03-10T23:40:20.810Z,4.30
2019-03-10T23:42:49.121Z,4.30
2019-03-10T23:45:18.171Z,4.20
2019-03-10T23:47:46.665Z,4.20
2019-03-10T23:50:16.048Z,4.30
2019-03-10T23:52:44.297Z,4.40
2019-03-10T23:55:13.302Z,4.50
2019-03-10T23:57:41.633Z,4.60
